Gilford, Michigan
Current Conditions -  °F | °C
As of 7:34 AM on Saturday 25 Oct 2014 (Local Time) from KCFS Reporting Station
Overcast Overcast  
Wind Chill: 51°   Ceiling: 3200
Heat Index: 51°   Visibility: 7mi
Dew Point: 48°   Wind: 6mph
Humidity: 91%   Direction: 220°SW
Pressure: 29.78"   Gusts: NA
Location:  43.49°N, 83.62°W
Report Text: KCFS 251134Z AUTO 22005KT 7SM OVC032 10/09 A2978 RMK AO2 T01040090
Loading
Personal Weather Stations






























Interactive Weather Map
Tropical Storm Tracking
New forecast layout! Learn more

10-Day Weather Forecast

Advertisements
Track Severe Weather on mobile